sensor_id;sensor_type;location;lat;lon;timestamp;temperature;humidity
51215;DHT22;63849;47.546;19.254;2023-12-20T00:01:01;0.50;88.60
51215;DHT22;63849;47.546;19.254;2023-12-20T00:03:27;0.60;88.00
51215;DHT22;63849;47.546;19.254;2023-12-20T00:05:53;0.70;88.00
51215;DHT22;63849;47.546;19.254;2023-12-20T00:08:18;0.50;88.20
51215;DHT22;63849;47.546;19.254;2023-12-20T00:10:44;0.30;88.80
51215;DHT22;63849;47.546;19.254;2023-12-20T00:13:10;0.30;88.50
51215;DHT22;63849;47.546;19.254;2023-12-20T00:15:36;0.30;88.90
51215;DHT22;63849;47.546;19.254;2023-12-20T00:18:02;0.40;88.50
51215;DHT22;63849;47.546;19.254;2023-12-20T00:20:28;0.60;89.10
51215;DHT22;63849;47.546;19.254;2023-12-20T00:22:57;0.60;88.50
51215;DHT22;63849;47.546;19.254;2023-12-20T00:25:24;0.50;88.20
51215;DHT22;63849;47.546;19.254;2023-12-20T00:27:50;0.30;88.10
51215;DHT22;63849;47.546;19.254;2023-12-20T00:30:19;0.30;89.00
51215;DHT22;63849;47.546;19.254;2023-12-20T00:32:44;0.40;88.90
51215;DHT22;63849;47.546;19.254;2023-12-20T00:35:15;0.50;89.00
51215;DHT22;63849;47.546;19.254;2023-12-20T00:37:45;0.70;88.90
51215;DHT22;63849;47.546;19.254;2023-12-20T00:40:11;0.70;88.70
51215;DHT22;63849;47.546;19.254;2023-12-20T00:42:37;0.50;88.40
51215;DHT22;63849;47.546;19.254;2023-12-20T00:45:03;0.60;88.80
51215;DHT22;63849;47.546;19.254;2023-12-20T00:47:30;0.50;89.20
51215;DHT22;63849;47.546;19.254;2023-12-20T00:49:57;0.20;88.80
51215;DHT22;63849;47.546;19.254;2023-12-20T00:52:23;0.40;89.70
51215;DHT22;63849;47.546;19.254;2023-12-20T00:54:49;0.40;89.80
51215;DHT22;63849;47.546;19.254;2023-12-20T00:57:15;0.50;89.30
51215;DHT22;63849;47.546;19.254;2023-12-20T00:59:40;0.60;89.10
51215;DHT22;63849;47.546;19.254;2023-12-20T01:02:06;0.60;89.20
51215;DHT22;63849;47.546;19.254;2023-12-20T01:04:32;0.70;88.70
51215;DHT22;63849;47.546;19.254;2023-12-20T01:06:58;0.50;89.00
51215;DHT22;63849;47.546;19.254;2023-12-20T01:09:23;0.40;88.70
51215;DHT22;63849;47.546;19.254;2023-12-20T01:11:52;0.50;88.90
51215;DHT22;63849;47.546;19.254;2023-12-20T01:14:18;0.60;89.20
51215;DHT22;63849;47.546;19.254;2023-12-20T01:16:44;0.60;88.90
51215;DHT22;63849;47.546;19.254;2023-12-20T01:19:09;0.70;88.70
51215;DHT22;63849;47.546;19.254;2023-12-20T01:21:35;0.70;88.80
51215;DHT22;63849;47.546;19.254;2023-12-20T01:24:01;0.60;88.80
51215;DHT22;63849;47.546;19.254;2023-12-20T01:26:26;0.50;89.10
51215;DHT22;63849;47.546;19.254;2023-12-20T01:28:53;0.50;89.10
51215;DHT22;63849;47.546;19.254;2023-12-20T01:31:19;0.40;89.40
51215;DHT22;63849;47.546;19.254;2023-12-20T01:33:44;0.40;89.40
51215;DHT22;63849;47.546;19.254;2023-12-20T01:36:10;0.60;89.90
51215;DHT22;63849;47.546;19.254;2023-12-20T01:38:37;0.50;89.10
51215;DHT22;63849;47.546;19.254;2023-12-20T01:41:02;0.50;90.00
51215;DHT22;63849;47.546;19.254;2023-12-20T01:43:29;0.80;90.00
51215;DHT22;63849;47.546;19.254;2023-12-20T01:45:57;0.70;89.00
51215;DHT22;63849;47.546;19.254;2023-12-20T01:48:24;0.60;89.50
51215;DHT22;63849;47.546;19.254;2023-12-20T01:50:51;0.50;89.50
51215;DHT22;63849;47.546;19.254;2023-12-20T01:53:19;0.70;89.70
51215;DHT22;63849;47.546;19.254;2023-12-20T01:55:45;0.50;89.60
51215;DHT22;63849;47.546;19.254;2023-12-20T01:58:14;0.60;90.20
51215;DHT22;63849;47.546;19.254;2023-12-20T02:00:41;0.60;89.80
51215;DHT22;63849;47.546;19.254;2023-12-20T02:03:06;0.60;89.20
51215;DHT22;63849;47.546;19.254;2023-12-20T02:05:33;0.50;89.20
51215;DHT22;63849;47.546;19.254;2023-12-20T02:07:59;0.60;89.50
51215;DHT22;63849;47.546;19.254;2023-12-20T02:10:25;0.50;89.80
51215;DHT22;63849;47.546;19.254;2023-12-20T02:12:51;0.50;90.10
51215;DHT22;63849;47.546;19.254;2023-12-20T02:15:17;0.60;89.60
51215;DHT22;63849;47.546;19.254;2023-12-20T02:17:44;0.80;90.20
51215;DHT22;63849;47.546;19.254;2023-12-20T02:20:10;0.80;89.30
51215;DHT22;63849;47.546;19.254;2023-12-20T02:22:36;0.80;89.50
51215;DHT22;63849;47.546;19.254;2023-12-20T02:25:02;0.90;89.20
51215;DHT22;63849;47.546;19.254;2023-12-20T02:27:29;0.90;89.40
51215;DHT22;63849;47.546;19.254;2023-12-20T02:29:55;0.90;89.30
51215;DHT22;63849;47.546;19.254;2023-12-20T02:32:21;1.00;89.00
51215;DHT22;63849;47.546;19.254;2023-12-20T02:34:49;0.90;88.80
51215;DHT22;63849;47.546;19.254;2023-12-20T02:37:15;0.90;88.80
51215;DHT22;63849;47.546;19.254;2023-12-20T02:39:40;1.00;89.00
51215;DHT22;63849;47.546;19.254;2023-12-20T02:42:06;0.70;87.20
51215;DHT22;63849;47.546;19.254;2023-12-20T02:44:32;0.80;89.30
51215;DHT22;63849;47.546;19.254;2023-12-20T02:46:58;0.70;88.70
51215;DHT22;63849;47.546;19.254;2023-12-20T02:49:23;0.50;88.50
51215;DHT22;63849;47.546;19.254;2023-12-20T02:51:49;0.60;89.70
51215;DHT22;63849;47.546;19.254;2023-12-20T02:54:15;0.40;88.60
51215;DHT22;63849;47.546;19.254;2023-12-20T02:56:40;0.70;90.00
51215;DHT22;63849;47.546;19.254;2023-12-20T02:59:06;0.70;89.10
51215;DHT22;63849;47.546;19.254;2023-12-20T03:01:34;0.60;89.40
51215;DHT22;63849;47.546;19.254;2023-12-20T03:04:00;0.40;88.90
51215;DHT22;63849;47.546;19.254;2023-12-20T03:06:26;0.40;89.40
51215;DHT22;63849;47.546;19.254;2023-12-20T03:08:52;0.40;90.00
51215;DHT22;63849;47.546;19.254;2023-12-20T03:11:18;0.10;89.20
51215;DHT22;63849;47.546;19.254;2023-12-20T03:13:44;0.00;89.70
51215;DHT22;63849;47.546;19.254;2023-12-20T03:16:13;0.30;90.40
51215;DHT22;63849;47.546;19.254;2023-12-20T03:18:39;0.30;89.70
51215;DHT22;63849;47.546;19.254;2023-12-20T03:21:05;0.30;89.10
51215;DHT22;63849;47.546;19.254;2023-12-20T03:23:31;0.20;89.10
51215;DHT22;63849;47.546;19.254;2023-12-20T03:26:00;0.30;89.70
51215;DHT22;63849;47.546;19.254;2023-12-20T03:28:26;0.30;88.70
51215;DHT22;63849;47.546;19.254;2023-12-20T03:30:52;0.20;88.40
51215;DHT22;63849;47.546;19.254;2023-12-20T03:33:18;0.20;89.30
51215;DHT22;63849;47.546;19.254;2023-12-20T03:35:43;0.30;88.90
51215;DHT22;63849;47.546;19.254;2023-12-20T03:38:09;0.30;88.80
51215;DHT22;63849;47.546;19.254;2023-12-20T03:40:35;0.30;88.60
51215;DHT22;63849;47.546;19.254;2023-12-20T03:43:00;0.20;87.40
51215;DHT22;63849;47.546;19.254;2023-12-20T03:45:27;0.30;87.90
51215;DHT22;63849;47.546;19.254;2023-12-20T03:47:52;0.30;87.70
51215;DHT22;63849;47.546;19.254;2023-12-20T03:50:25;0.20;87.60
51215;DHT22;63849;47.546;19.254;2023-12-20T03:52:51;0.20;87.60
51215;DHT22;63849;47.546;19.254;2023-12-20T03:55:17;0.00;87.70
51215;DHT22;63849;47.546;19.254;2023-12-20T03:57:43;0.00;88.30
51215;DHT22;63849;47.546;19.254;2023-12-20T04:00:09;0.10;88.80
51215;DHT22;63849;47.546;19.254;2023-12-20T04:02:39;0.00;89.20
51215;DHT22;63849;47.546;19.254;2023-12-20T04:05:06;0.20;89.00
51215;DHT22;63849;47.546;19.254;2023-12-20T04:07:31;0.30;88.50
51215;DHT22;63849;47.546;19.254;2023-12-20T04:09:57;0.20;88.70
51215;DHT22;63849;47.546;19.254;2023-12-20T04:12:23;0.20;87.70
51215;DHT22;63849;47.546;19.254;2023-12-20T04:14:48;0.00;88.70
51215;DHT22;63849;47.546;19.254;2023-12-20T04:17:17;0.10;89.80
51215;DHT22;63849;47.546;19.254;2023-12-20T04:19:43;0.00;89.40
51215;DHT22;63849;47.546;19.254;2023-12-20T04:22:09;0.00;88.70
51215;DHT22;63849;47.546;19.254;2023-12-20T04:24:35;-0.10;89.80
51215;DHT22;63849;47.546;19.254;2023-12-20T04:27:01;0.00;90.20
51215;DHT22;63849;47.546;19.254;2023-12-20T04:29:27;0.20;89.40
51215;DHT22;63849;47.546;19.254;2023-12-20T04:31:53;0.00;89.10
51215;DHT22;63849;47.546;19.254;2023-12-20T04:34:18;0.00;89.20
51215;DHT22;63849;47.546;19.254;2023-12-20T04:36:44;0.00;88.80
51215;DHT22;63849;47.546;19.254;2023-12-20T04:39:12;-0.10;88.50
51215;DHT22;63849;47.546;19.254;2023-12-20T04:41:38;0.10;88.00
51215;DHT22;63849;47.546;19.254;2023-12-20T04:44:05;0.20;87.50
51215;DHT22;63849;47.546;19.254;2023-12-20T04:46:31;0.10;87.60
51215;DHT22;63849;47.546;19.254;2023-12-20T04:48:57;0.00;87.60
51215;DHT22;63849;47.546;19.254;2023-12-20T04:51:23;0.20;87.40
51215;DHT22;63849;47.546;19.254;2023-12-20T04:53:48;-0.10;86.40
51215;DHT22;63849;47.546;19.254;2023-12-20T04:56:14;0.10;87.00
51215;DHT22;63849;47.546;19.254;2023-12-20T04:58:40;-0.10;86.20
51215;DHT22;63849;47.546;19.254;2023-12-20T05:01:06;-0.10;86.90
51215;DHT22;63849;47.546;19.254;2023-12-20T05:03:32;0.00;87.10
51215;DHT22;63849;47.546;19.254;2023-12-20T05:05:58;0.10;86.50
51215;DHT22;63849;47.546;19.254;2023-12-20T05:08:24;0.10;86.30
51215;DHT22;63849;47.546;19.254;2023-12-20T05:10:54;0.10;86.20
51215;DHT22;63849;47.546;19.254;2023-12-20T05:13:20;0.10;86.00
51215;DHT22;63849;47.546;19.254;2023-12-20T05:15:45;-0.10;85.90
51215;DHT22;63849;47.546;19.254;2023-12-20T05:18:12;-0.10;86.90
51215;DHT22;63849;47.546;19.254;2023-12-20T05:20:39;0.00;87.50
51215;DHT22;63849;47.546;19.254;2023-12-20T05:23:05;0.00;86.20
51215;DHT22;63849;47.546;19.254;2023-12-20T05:25:31;0.00;87.20
51215;DHT22;63849;47.546;19.254;2023-12-20T05:27:57;0.10;86.50
51215;DHT22;63849;47.546;19.254;2023-12-20T05:30:22;0.10;86.80
51215;DHT22;63849;47.546;19.254;2023-12-20T05:32:48;-0.20;86.90
51215;DHT22;63849;47.546;19.254;2023-12-20T05:35:14;-0.10;87.40
51215;DHT22;63849;47.546;19.254;2023-12-20T05:37:41;-0.10;87.60
51215;DHT22;63849;47.546;19.254;2023-12-20T05:40:07;-0.10;88.30
51215;DHT22;63849;47.546;19.254;2023-12-20T05:42:36;-0.10;87.60
51215;DHT22;63849;47.546;19.254;2023-12-20T05:45:02;-0.10;87.80
51215;DHT22;63849;47.546;19.254;2023-12-20T05:47:28;0.00;87.70
51215;DHT22;63849;47.546;19.254;2023-12-20T05:49:53;-0.10;87.50
51215;DHT22;63849;47.546;19.254;2023-12-20T05:52:19;-0.10;87.80
51215;DHT22;63849;47.546;19.254;2023-12-20T05:54:45;-0.10;87.70
51215;DHT22;63849;47.546;19.254;2023-12-20T05:57:10;-0.30;87.00
51215;DHT22;63849;47.546;19.254;2023-12-20T05:59:36;-0.40;87.90
51215;DHT22;63849;47.546;19.254;2023-12-20T06:02:03;-0.10;87.40
51215;DHT22;63849;47.546;19.254;2023-12-20T06:04:30;-0.10;88.10
51215;DHT22;63849;47.546;19.254;2023-12-20T06:06:56;0.00;87.50
51215;DHT22;63849;47.546;19.254;2023-12-20T06:09:21;0.20;87.00
51215;DHT22;63849;47.546;19.254;2023-12-20T06:11:47;0.20;86.10
51215;DHT22;63849;47.546;19.254;2023-12-20T06:14:13;0.20;86.70
51215;DHT22;63849;47.546;19.254;2023-12-20T06:16:38;0.30;86.50
51215;DHT22;63849;47.546;19.254;2023-12-20T06:19:04;0.20;86.40
51215;DHT22;63849;47.546;19.254;2023-12-20T06:21:30;0.30;86.50
51215;DHT22;63849;47.546;19.254;2023-12-20T06:23:55;0.30;86.50
51215;DHT22;63849;47.546;19.254;2023-12-20T06:26:21;0.30;86.40
51215;DHT22;63849;47.546;19.254;2023-12-20T06:28:47;0.10;87.20
51215;DHT22;63849;47.546;19.254;2023-12-20T06:31:12;0.30;87.40
51215;DHT22;63849;47.546;19.254;2023-12-20T06:33:38;0.40;87.20
51215;DHT22;63849;47.546;19.254;2023-12-20T06:36:06;0.40;87.10
51215;DHT22;63849;47.546;19.254;2023-12-20T06:38:32;0.40;86.90
51215;DHT22;63849;47.546;19.254;2023-12-20T06:40:58;0.30;88.00
51215;DHT22;63849;47.546;19.254;2023-12-20T06:43:24;0.50;87.90
51215;DHT22;63849;47.546;19.254;2023-12-20T06:45:49;0.60;87.80
51215;DHT22;63849;47.546;19.254;2023-12-20T06:48:16;0.30;86.80
51215;DHT22;63849;47.546;19.254;2023-12-20T06:50:42;0.30;87.20
51215;DHT22;63849;47.546;19.254;2023-12-20T06:53:08;0.30;87.50
51215;DHT22;63849;47.546;19.254;2023-12-20T06:55:35;0.20;87.80
51215;DHT22;63849;47.546;19.254;2023-12-20T06:58:02;0.00;88.00
51215;DHT22;63849;47.546;19.254;2023-12-20T07:00:28;-0.10;87.90
51215;DHT22;63849;47.546;19.254;2023-12-20T07:02:53;-0.30;87.70
51215;DHT22;63849;47.546;19.254;2023-12-20T07:05:19;-0.30;87.60
51215;DHT22;63849;47.546;19.254;2023-12-20T07:07:46;-0.20;87.20
51215;DHT22;63849;47.546;19.254;2023-12-20T07:10:13;0.00;87.40
51215;DHT22;63849;47.546;19.254;2023-12-20T07:12:38;-0.20;87.30
51215;DHT22;63849;47.546;19.254;2023-12-20T07:15:04;-0.10;86.60
51215;DHT22;63849;47.546;19.254;2023-12-20T07:17:32;0.00;87.40
51215;DHT22;63849;47.546;19.254;2023-12-20T07:19:58;-0.10;87.70
51215;DHT22;63849;47.546;19.254;2023-12-20T07:22:24;-0.10;88.00
51215;DHT22;63849;47.546;19.254;2023-12-20T07:24:50;-0.10;88.30
51215;DHT22;63849;47.546;19.254;2023-12-20T07:27:17;-0.10;88.40
51215;DHT22;63849;47.546;19.254;2023-12-20T07:29:43;0.00;88.60
51215;DHT22;63849;47.546;19.254;2023-12-20T07:32:08;0.00;88.30
51215;DHT22;63849;47.546;19.254;2023-12-20T07:34:34;0.20;88.70
51215;DHT22;63849;47.546;19.254;2023-12-20T07:37:00;0.30;88.10
51215;DHT22;63849;47.546;19.254;2023-12-20T07:39:25;0.50;87.50
51215;DHT22;63849;47.546;19.254;2023-12-20T07:41:51;0.50;86.80
51215;DHT22;63849;47.546;19.254;2023-12-20T07:44:17;0.50;86.20
51215;DHT22;63849;47.546;19.254;2023-12-20T07:46:42;0.40;86.60
51215;DHT22;63849;47.546;19.254;2023-12-20T07:49:08;0.20;86.70
51215;DHT22;63849;47.546;19.254;2023-12-20T07:51:35;0.10;87.40
51215;DHT22;63849;47.546;19.254;2023-12-20T07:54:01;0.10;87.90
51215;DHT22;63849;47.546;19.254;2023-12-20T07:56:26;0.20;88.00
51215;DHT22;63849;47.546;19.254;2023-12-20T07:58:52;0.40;88.50
51215;DHT22;63849;47.546;19.254;2023-12-20T08:01:18;0.20;87.60
51215;DHT22;63849;47.546;19.254;2023-12-20T08:03:44;0.20;87.70
51215;DHT22;63849;47.546;19.254;2023-12-20T08:06:09;0.30;88.30
51215;DHT22;63849;47.546;19.254;2023-12-20T08:08:35;0.20;87.50
51215;DHT22;63849;47.546;19.254;2023-12-20T08:11:01;0.20;87.60
51215;DHT22;63849;47.546;19.254;2023-12-20T08:13:28;0.30;87.30
51215;DHT22;63849;47.546;19.254;2023-12-20T08:15:54;0.40;87.90
51215;DHT22;63849;47.546;19.254;2023-12-20T08:18:21;0.40;88.30
51215;DHT22;63849;47.546;19.254;2023-12-20T08:20:47;0.70;87.30
51215;DHT22;63849;47.546;19.254;2023-12-20T08:23:14;0.80;87.60
51215;DHT22;63849;47.546;19.254;2023-12-20T08:25:39;0.50;87.00
51215;DHT22;63849;47.546;19.254;2023-12-20T08:28:05;0.50;86.60
51215;DHT22;63849;47.546;19.254;2023-12-20T08:30:31;0.40;87.10
51215;DHT22;63849;47.546;19.254;2023-12-20T08:33:00;0.40;87.00
51215;DHT22;63849;47.546;19.254;2023-12-20T08:35:26;0.80;87.20
51215;DHT22;63849;47.546;19.254;2023-12-20T08:37:51;1.00;86.90
51215;DHT22;63849;47.546;19.254;2023-12-20T08:40:17;1.10;85.60
51215;DHT22;63849;47.546;19.254;2023-12-20T08:42:44;1.20;85.30
51215;DHT22;63849;47.546;19.254;2023-12-20T08:45:10;0.90;85.20
51215;DHT22;63849;47.546;19.254;2023-12-20T08:47:35;1.00;85.70
51215;DHT22;63849;47.546;19.254;2023-12-20T08:50:02;0.80;85.10
51215;DHT22;63849;47.546;19.254;2023-12-20T08:52:28;0.90;86.30
51215;DHT22;63849;47.546;19.254;2023-12-20T08:54:55;0.80;86.10
51215;DHT22;63849;47.546;19.254;2023-12-20T08:57:21;0.80;86.40
51215;DHT22;63849;47.546;19.254;2023-12-20T08:59:47;0.80;86.60
51215;DHT22;63849;47.546;19.254;2023-12-20T09:02:13;0.70;86.80
51215;DHT22;63849;47.546;19.254;2023-12-20T09:04:39;0.80;86.70
51215;DHT22;63849;47.546;19.254;2023-12-20T09:07:05;0.80;87.00
51215;DHT22;63849;47.546;19.254;2023-12-20T09:09:31;0.80;87.10
51215;DHT22;63849;47.546;19.254;2023-12-20T09:12:00;0.90;87.10
51215;DHT22;63849;47.546;19.254;2023-12-20T09:14:25;0.90;87.00
51215;DHT22;63849;47.546;19.254;2023-12-20T09:16:51;1.10;87.10
51215;DHT22;63849;47.546;19.254;2023-12-20T09:19:19;0.90;86.70
51215;DHT22;63849;47.546;19.254;2023-12-20T09:21:44;1.10;87.00
51215;DHT22;63849;47.546;19.254;2023-12-20T09:24:10;1.10;86.00
51215;DHT22;63849;47.546;19.254;2023-12-20T09:26:36;1.00;86.70
51215;DHT22;63849;47.546;19.254;2023-12-20T09:29:02;1.10;87.00
51215;DHT22;63849;47.546;19.254;2023-12-20T09:31:28;1.00;86.50
51215;DHT22;63849;47.546;19.254;2023-12-20T09:33:53;1.00;86.80
51215;DHT22;63849;47.546;19.254;2023-12-20T09:36:19;1.00;87.40
51215;DHT22;63849;47.546;19.254;2023-12-20T09:38:45;1.20;87.70
51215;DHT22;63849;47.546;19.254;2023-12-20T09:41:10;1.20;87.10
51215;DHT22;63849;47.546;19.254;2023-12-20T09:43:37;1.40;87.50
51215;DHT22;63849;47.546;19.254;2023-12-20T09:46:06;1.40;87.30
51215;DHT22;63849;47.546;19.254;2023-12-20T09:48:36;1.40;86.70
51215;DHT22;63849;47.546;19.254;2023-12-20T09:51:02;1.40;86.20
51215;DHT22;63849;47.546;19.254;2023-12-20T09:53:29;1.40;86.80
51215;DHT22;63849;47.546;19.254;2023-12-20T09:55:58;1.60;87.00
51215;DHT22;63849;47.546;19.254;2023-12-20T09:58:25;1.60;86.00
51215;DHT22;63849;47.546;19.254;2023-12-20T10:00:53;1.60;86.60
51215;DHT22;63849;47.546;19.254;2023-12-20T10:03:24;1.50;86.60
51215;DHT22;63849;47.546;19.254;2023-12-20T10:05:54;1.50;86.60
51215;DHT22;63849;47.546;19.254;2023-12-20T10:08:21;1.70;86.70
51215;DHT22;63849;47.546;19.254;2023-12-20T10:10:48;1.60;85.40
51215;DHT22;63849;47.546;19.254;2023-12-20T10:13:15;1.50;86.20
51215;DHT22;63849;47.546;19.254;2023-12-20T10:15:41;1.60;86.80
51215;DHT22;63849;47.546;19.254;2023-12-20T10:18:06;1.70;86.30
51215;DHT22;63849;47.546;19.254;2023-12-20T10:20:32;1.80;86.50
51215;DHT22;63849;47.546;19.254;2023-12-20T10:22:59;1.80;86.40
51215;DHT22;63849;47.546;19.254;2023-12-20T10:25:25;1.80;86.60
51215;DHT22;63849;47.546;19.254;2023-12-20T10:28:09;1.90;87.10
51215;DHT22;63849;47.546;19.254;2023-12-20T10:30:35;2.20;86.80
51215;DHT22;63849;47.546;19.254;2023-12-20T10:33:01;2.10;86.20
51215;DHT22;63849;47.546;19.254;2023-12-20T10:35:27;2.10;86.30
51215;DHT22;63849;47.546;19.254;2023-12-20T10:37:56;2.00;86.50
51215;DHT22;63849;47.546;19.254;2023-12-20T10:40:22;2.00;86.80
51215;DHT22;63849;47.546;19.254;2023-12-20T10:42:48;2.00;86.30
51215;DHT22;63849;47.546;19.254;2023-12-20T10:45:14;2.10;86.50
51215;DHT22;63849;47.546;19.254;2023-12-20T10:47:44;2.30;86.40
51215;DHT22;63849;47.546;19.254;2023-12-20T10:50:11;2.30;85.90
51215;DHT22;63849;47.546;19.254;2023-12-20T10:52:38;2.30;86.00
51215;DHT22;63849;47.546;19.254;2023-12-20T10:55:04;2.30;86.10
51215;DHT22;63849;47.546;19.254;2023-12-20T10:57:30;2.40;85.90
51215;DHT22;63849;47.546;19.254;2023-12-20T11:00:00;2.50;85.70
51215;DHT22;63849;47.546;19.254;2023-12-20T11:02:31;2.40;86.00
51215;DHT22;63849;47.546;19.254;2023-12-20T11:05:10;2.50;86.00
51215;DHT22;63849;47.546;19.254;2023-12-20T11:07:52;2.50;86.50
51215;DHT22;63849;47.546;19.254;2023-12-20T11:10:26;2.40;87.40
51215;DHT22;63849;47.546;19.254;2023-12-20T11:13:07;2.40;86.90
51215;DHT22;63849;47.546;19.254;2023-12-20T11:15:36;2.50;87.00
51215;DHT22;63849;47.546;19.254;2023-12-20T11:18:04;2.40;87.50
51215;DHT22;63849;47.546;19.254;2023-12-20T11:20:40;2.30;87.10
51215;DHT22;63849;47.546;19.254;2023-12-20T11:23:06;2.40;87.80
51215;DHT22;63849;47.546;19.254;2023-12-20T11:26:08;2.30;87.10
51215;DHT22;63849;47.546;19.254;2023-12-20T11:28:34;2.40;87.30
51215;DHT22;63849;47.546;19.254;2023-12-20T11:33:38;2.40;87.00
51215;DHT22;63849;47.546;19.254;2023-12-20T11:36:13;2.60;87.40
51215;DHT22;63849;47.546;19.254;2023-12-20T11:38:47;2.70;87.00
51215;DHT22;63849;47.546;19.254;2023-12-20T11:41:15;2.70;87.10
51215;DHT22;63849;47.546;19.254;2023-12-20T11:43:41;2.60;86.80
51215;DHT22;63849;47.546;19.254;2023-12-20T11:46:08;2.70;87.10
51215;DHT22;63849;47.546;19.254;2023-12-20T11:48:37;2.80;87.40
51215;DHT22;63849;47.546;19.254;2023-12-20T11:51:09;2.80;87.30
51215;DHT22;63849;47.546;19.254;2023-12-20T11:53:35;2.90;87.30
51215;DHT22;63849;47.546;19.254;2023-12-20T11:56:03;2.80;87.50
51215;DHT22;63849;47.546;19.254;2023-12-20T11:58:29;2.80;87.50
51215;DHT22;63849;47.546;19.254;2023-12-20T12:00:55;2.80;88.00
51215;DHT22;63849;47.546;19.254;2023-12-20T12:03:21;2.80;88.10
51215;DHT22;63849;47.546;19.254;2023-12-20T12:05:49;2.90;88.30
51215;DHT22;63849;47.546;19.254;2023-12-20T12:08:16;3.00;88.20
51215;DHT22;63849;47.546;19.254;2023-12-20T12:10:45;3.10;88.20
51215;DHT22;63849;47.546;19.254;2023-12-20T12:13:11;3.20;88.20
51215;DHT22;63849;47.546;19.254;2023-12-20T12:15:37;3.30;88.30
51215;DHT22;63849;47.546;19.254;2023-12-20T12:18:03;3.50;88.40
51215;DHT22;63849;47.546;19.254;2023-12-20T12:20:30;3.70;88.20
51215;DHT22;63849;47.546;19.254;2023-12-20T12:23:00;3.80;87.90
51215;DHT22;63849;47.546;19.254;2023-12-20T12:25:26;4.00;87.80
51215;DHT22;63849;47.546;19.254;2023-12-20T12:27:52;4.10;87.40
51215;DHT22;63849;47.546;19.254;2023-12-20T12:30:18;4.20;87.10
51215;DHT22;63849;47.546;19.254;2023-12-20T12:32:44;4.20;86.90
51215;DHT22;63849;47.546;19.254;2023-12-20T12:35:10;4.20;87.10
51215;DHT22;63849;47.546;19.254;2023-12-20T12:37:38;4.30;87.20
51215;DHT22;63849;47.546;19.254;2023-12-20T12:40:15;4.30;87.30
51215;DHT22;63849;47.546;19.254;2023-12-20T12:42:42;4.30;87.20
51215;DHT22;63849;47.546;19.254;2023-12-20T12:45:08;4.30;87.30
51215;DHT22;63849;47.546;19.254;2023-12-20T12:47:34;4.40;87.20
51215;DHT22;63849;47.546;19.254;2023-12-20T12:50:01;4.40;87.30
51215;DHT22;63849;47.546;19.254;2023-12-20T12:52:26;4.40;87.60
51215;DHT22;63849;47.546;19.254;2023-12-20T12:54:53;4.40;87.50
51215;DHT22;63849;47.546;19.254;2023-12-20T12:57:19;4.40;87.70
51215;DHT22;63849;47.546;19.254;2023-12-20T12:59:45;4.50;87.50
51215;DHT22;63849;47.546;19.254;2023-12-20T13:02:12;4.50;87.30
51215;DHT22;63849;47.546;19.254;2023-12-20T13:04:39;4.50;87.20
51215;DHT22;63849;47.546;19.254;2023-12-20T13:07:05;4.50;87.30
51215;DHT22;63849;47.546;19.254;2023-12-20T13:09:31;4.60;87.20
51215;DHT22;63849;47.546;19.254;2023-12-20T13:11:57;4.50;87.10
51215;DHT22;63849;47.546;19.254;2023-12-20T13:14:22;4.60;86.90
51215;DHT22;63849;47.546;19.254;2023-12-20T13:16:48;4.50;86.90
51215;DHT22;63849;47.546;19.254;2023-12-20T13:19:14;4.60;87.10
51215;DHT22;63849;47.546;19.254;2023-12-20T13:21:40;4.60;87.10
51215;DHT22;63849;47.546;19.254;2023-12-20T13:24:06;4.70;87.00
51215;DHT22;63849;47.546;19.254;2023-12-20T13:26:32;4.70;86.80
51215;DHT22;63849;47.546;19.254;2023-12-20T13:28:58;4.70;86.80
51215;DHT22;63849;47.546;19.254;2023-12-20T13:31:24;4.70;86.70
51215;DHT22;63849;47.546;19.254;2023-12-20T13:33:50;4.70;86.70
51215;DHT22;63849;47.546;19.254;2023-12-20T13:36:18;4.60;86.70
51215;DHT22;63849;47.546;19.254;2023-12-20T13:38:44;4.60;86.70
51215;DHT22;63849;47.546;19.254;2023-12-20T13:41:09;4.60;86.70
51215;DHT22;63849;47.546;19.254;2023-12-20T13:43:35;4.70;86.70
51215;DHT22;63849;47.546;19.254;2023-12-20T13:46:01;4.60;86.90
51215;DHT22;63849;47.546;19.254;2023-12-20T13:48:26;4.70;86.80
51215;DHT22;63849;47.546;19.254;2023-12-20T13:50:52;4.70;86.60
51215;DHT22;63849;47.546;19.254;2023-12-20T13:53:17;4.70;86.70
51215;DHT22;63849;47.546;19.254;2023-12-20T13:55:44;4.70;86.60
51215;DHT22;63849;47.546;19.254;2023-12-20T13:58:09;4.70;86.60
51215;DHT22;63849;47.546;19.254;2023-12-20T14:00:35;4.70;86.60
51215;DHT22;63849;47.546;19.254;2023-12-20T14:03:02;4.60;86.70
51215;DHT22;63849;47.546;19.254;2023-12-20T14:05:28;4.60;86.60
51215;DHT22;63849;47.546;19.254;2023-12-20T14:07:53;4.60;86.70
51215;DHT22;63849;47.546;19.254;2023-12-20T14:10:19;4.60;86.70
51215;DHT22;63849;47.546;19.254;2023-12-20T14:12:44;4.60;86.70
51215;DHT22;63849;47.546;19.254;2023-12-20T14:15:10;4.50;86.80
51215;DHT22;63849;47.546;19.254;2023-12-20T14:17:39;4.60;86.70
51215;DHT22;63849;47.546;19.254;2023-12-20T14:20:05;4.60;86.70
51215;DHT22;63849;47.546;19.254;2023-12-20T14:22:31;4.60;86.80
51215;DHT22;63849;47.546;19.254;2023-12-20T14:24:57;4.50;87.00
51215;DHT22;63849;47.546;19.254;2023-12-20T14:27:22;4.60;86.90
51215;DHT22;63849;47.546;19.254;2023-12-20T14:29:50;4.50;87.00
51215;DHT22;63849;47.546;19.254;2023-12-20T14:32:15;4.50;87.00
51215;DHT22;63849;47.546;19.254;2023-12-20T14:34:41;4.50;87.20
51215;DHT22;63849;47.546;19.254;2023-12-20T14:37:07;4.40;87.30
51215;DHT22;63849;47.546;19.254;2023-12-20T14:39:32;4.40;87.20
51215;DHT22;63849;47.546;19.254;2023-12-20T14:41:58;4.40;87.30
51215;DHT22;63849;47.546;19.254;2023-12-20T14:44:23;4.40;87.20
51215;DHT22;63849;47.546;19.254;2023-12-20T14:46:50;4.40;87.30
51215;DHT22;63849;47.546;19.254;2023-12-20T14:51:34;4.50;86.90
51215;DHT22;63849;47.546;19.254;2023-12-20T14:54:00;4.70;87.00
51215;DHT22;63849;47.546;19.254;2023-12-20T14:56:26;4.70;86.30
51215;DHT22;63849;47.546;19.254;2023-12-20T14:58:52;4.70;86.40
51215;DHT22;63849;47.546;19.254;2023-12-20T15:01:18;4.60;86.30
51215;DHT22;63849;47.546;19.254;2023-12-20T15:03:46;4.70;86.20
51215;DHT22;63849;47.546;19.254;2023-12-20T15:06:12;4.70;86.10
51215;DHT22;63849;47.546;19.254;2023-12-20T15:08:37;4.70;86.10
51215;DHT22;63849;47.546;19.254;2023-12-20T15:11:03;4.70;86.00
51215;DHT22;63849;47.546;19.254;2023-12-20T15:13:29;4.70;86.00
51215;DHT22;63849;47.546;19.254;2023-12-20T15:15:56;4.70;86.00
51215;DHT22;63849;47.546;19.254;2023-12-20T15:18:21;4.60;86.00
51215;DHT22;63849;47.546;19.254;2023-12-20T15:20:47;4.60;86.00
51215;DHT22;63849;47.546;19.254;2023-12-20T15:23:13;4.60;86.00
51215;DHT22;63849;47.546;19.254;2023-12-20T15:25:38;4.60;86.20
51215;DHT22;63849;47.546;19.254;2023-12-20T15:28:04;4.40;86.30
51215;DHT22;63849;47.546;19.254;2023-12-20T15:30:30;4.40;86.40